Thursday, July 19, 2018, 5:25 AM GMT
Back to Local

CYYY, Mont Joli, Que.

Location: , , Canada Lat: 48.6
Local Time: 5:25 AM GMT ( 5:25 GMT) Lon: -68.217
Time Zone: GMT Elev: 157 ft

Show me the last for .
Show Decoded

2018-07-19 05:00 METAR CYYY 190500Z 23009KT 30SM SKC 14/08 A2990 RMK SLP128 DENSITY ALT 200FT =
2018-07-19 04:00 METAR CYYY 190400Z 21008KT 30SM SKC 15/08 A2989 RMK SLP125 DENSITY ALT 300FT =
2018-07-19 03:00 METAR CYYY 190300Z 21008KT 30SM SKC 16/08 A2989 RMK SLP124 DENSITY ALT 400FT =
2018-07-19 02:00 METAR CYYY 190200Z 19007KT 30SM FEW060 15/08 A2989 RMK SC1 SC TR SLP123 DENSITY
                 ALT 200FT =
2018-07-19 01:00 METAR CYYY 190100Z 17004KT 30SM FEW060 15/09 A2988 RMK SC1 SC TR SLP120 DENSITY
                 ALT 300FT =
2018-07-19 00:00 METAR CYYY 190000Z 22005KT 30SM FEW060 17/09 A2987 RMK SC1 SC TR SLP117 DENSITY
                 ALT 600FT =
2018-07-18 23:00 METAR CYYY 182300Z 24004KT 30SM FEW060 18/09 A2986 RMK SC2 SLP115 DENSITY ALT
                 700FT =
2018-07-18 22:00 METAR CYYY 182200Z 26006KT 30SM FEW040 18/09 A2985 RMK SC1 SLP112 DENSITY ALT
                 600FT =
2018-07-18 21:00 METAR CYYY 182100Z 27009KT 30SM FEW035 18/09 A2985 RMK SC1 SLP109 DENSITY ALT
                 700FT =
2018-07-18 20:00 METAR CYYY 182000Z 27015KT 30SM FEW040 19/07 A2984 RMK CU1 SLP106 DENSITY ALT
                 800FT =
2018-07-18 19:00 METAR CYYY 181900Z 26011G16KT 30SM FEW040 20/07 A2982 RMK CU1 SLP100 DENSITY ALT
                 900FT =
2018-07-18 18:00 METAR CYYY 181800Z 26011G16KT 30SM FEW040 20/07 A2982 RMK CU1 SLP099 DENSITY ALT
                 900FT =
2018-07-18 17:00 METAR CYYY 181700Z 25014KT 30SM FEW030 FEW035 19/07 A2982 RMK CU1SC1 CU TR
                 SLP099 DENSITY ALT 800FT =
2018-07-18 16:00 METAR CYYY 181600Z 25013G19KT 30SM FEW025 FEW035 18/08 A2982 RMK CU1SC1 CU TR
                 SLP099 DENSITY ALT 700FT =
2018-07-18 15:00 METAR CYYY 181500Z 27014KT 30SM FEW035 17/08 A2981 RMK SC1 SLP098 DENSITY ALT
                 600FT =
2018-07-18 14:00 METAR CYYY 181400Z 25012KT 30SM BKN040 17/10 A2981 RMK SC5 SLP096 DENSITY ALT
                 600FT =
2018-07-18 13:00 METAR CYYY 181300Z 27006KT 30SM FEW020 BKN028 BKN240 13/10 A2980 RMK CU1SC5CI1
                 CU TR CI TR SLP093 DENSITY ALT 200FT =
2018-07-18 12:00 METAR CYYY 181200Z 26008KT 30SM FEW022 BKN030 BKN240 13/11 A2979 RMK SF1SC6CI1
                 SF TR CI TR SLP090 DENSITY ALT 200FT =
2018-07-18 11:00 METAR CYYY 181100Z 26009G16KT 30SM BKN023 14/11 A2977 RMK SC6 SLP084 DENSITY ALT
                 300FT =
2018-07-18 10:00 METAR CYYY 181000Z 23009KT 30SM BKN028 14/12 A2975 RMK SC6 SLP078 DENSITY ALT
                 300FT =
2018-07-18 09:00 METAR CYYY 180900Z 24010KT 30SM BKN028 BKN052 15/13 A2973 RMK SC5SC1 SLP070
                 DENSITY ALT 400FT =
2018-07-18 08:00 METAR CYYY 180800Z 23007KT 15SM SCT052 15/13 A2972 RMK SC3 SLP064 DENSITY ALT
                 500FT =
2018-07-18 07:00 METAR CYYY 180700Z 25009KT 15SM SCT052 16/14 A2969 RMK SC4 SLP056 DENSITY ALT
                 700FT =
2018-07-18 06:00 METAR CYYY 180600Z 24007KT 15SM SKC 17/16 A2967 RMK SLP048 DENSITY ALT 800FT =

Support USWX by starting your Amazon purchase here.